Time;durP1;ratioP1;P1;durP2;ratioP2;P2;SDS_P1;SDS_P2;PMS_P1;PMS_P2;Temp;Humidity;BMP_temperature;BMP_pressure;BME280_temperature;BME280_humidity;BME280_pressure;Samples;Min_cycle;Max_cycle;Signal;HPM_P1;HPM_P2
2022/11/06 00:02:13;;;;;;;0.03;0.03;;;7.60;99.90;;;;;;5044825;28;20268;-84
2022/11/06 00:04:38;;;;;;;0.10;0.10;;;7.40;99.90;;;;;;5045464;28;20296;-85
2022/11/06 00:07:04;;;;;;;0.10;0.10;;;7.50;99.90;;;;;;5062342;28;20267;-85
2022/11/06 00:09:29;;;;;;;0.10;0.10;;;7.70;99.90;;;;;;5044756;28;20324;-85
2022/11/06 00:11:56;;;;;;;0.10;0.10;;;7.60;99.90;;;;;;5045121;28;20270;-85
2022/11/06 00:14:23;;;;;;;0.10;0.10;;;7.60;99.90;;;;;;5044374;28;20205;-86
2022/11/06 00:16:48;;;;;;;0.10;0.10;;;7.60;99.90;;;;;;5043723;28;20183;-86
2022/11/06 00:19:15;;;;;;;0.10;0.10;;;7.50;99.90;;;;;;5045652;28;20549;-86
2022/11/06 00:21:40;;;;;;;0.10;0.10;;;7.50;99.90;;;;;;5045634;28;20191;-86
2022/11/06 00:24:07;;;;;;;0.00;0.00;;;7.50;99.90;;;;;;5044873;28;20199;-86
2022/11/06 00:26:33;;;;;;;0.10;0.10;;;7.70;99.90;;;;;;5045559;28;20212;-86
2022/11/06 00:29:00;;;;;;;0.10;0.10;;;7.70;99.90;;;;;;5045005;28;20585;-85
2022/11/06 00:31:28;;;;;;;0.00;0.00;;;7.70;99.90;;;;;;5044839;28;20278;-86
2022/11/06 00:33:56;;;;;;;0.00;0.00;;;7.70;99.90;;;;;;5047443;28;20236;-86
2022/11/06 00:36:24;;;;;;;0.10;0.10;;;7.70;99.90;;;;;;5049318;28;20307;-86
2022/11/06 00:38:54;;;;;;;0.10;0.10;;;7.70;99.90;;;;;;5065013;28;20202;-87
2022/11/06 00:41:20;;;;;;;0.10;0.10;;;7.60;99.90;;;;;;5048923;28;20218;-86
2022/11/06 00:43:50;;;;;;;0.10;0.10;;;7.40;99.90;;;;;;5063665;28;20544;-86
2022/11/06 00:46:17;;;;;;;0.10;0.10;;;7.20;99.90;;;;;;5048102;28;20407;-86
2022/11/06 00:48:43;;;;;;;0.10;0.10;;;7.00;99.90;;;;;;5048693;28;20209;-86
2022/11/06 00:51:14;;;;;;;0.10;0.10;;;6.90;99.90;;;;;;5050099;28;20188;-86
2022/11/06 00:53:41;;;;;;;0.00;0.00;;;6.90;99.90;;;;;;5048273;28;20221;-86
2022/11/06 00:56:11;;;;;;;0.10;0.10;;;6.90;99.90;;;;;;5048096;28;20847;-86
2022/11/06 00:58:38;;;;;;;0.10;0.10;;;6.80;99.90;;;;;;5048069;28;20235;-86
2022/11/06 01:01:15;;;;;;;0.10;0.10;;;6.70;99.90;;;;;;5050136;28;20601;-87
2022/11/06 01:03:43;;;;;;;0.10;0.10;;;6.60;99.90;;;;;;5048712;28;20183;-86
2022/11/06 01:06:15;;;;;;;0.00;0.00;;;6.50;99.90;;;;;;5064699;28;20197;-86
2022/11/06 01:08:41;;;;;;;0.10;0.10;;;6.50;99.90;;;;;;5047537;28;20207;-86
2022/11/06 01:11:08;;;;;;;0.10;0.10;;;6.60;99.90;;;;;;5064204;28;20219;-85
2022/11/06 01:13:34;;;;;;;0.10;0.10;;;6.70;99.90;;;;;;5048087;28;20205;-86
2022/11/06 01:16:00;;;;;;;0.10;0.10;;;6.90;99.90;;;;;;5047580;28;20181;-86
2022/11/06 01:18:25;;;;;;;0.10;0.10;;;7.00;99.90;;;;;;5046212;28;20284;-86
2022/11/06 01:20:51;;;;;;;0.10;0.10;;;7.10;99.90;;;;;;5046998;28;20670;-87
2022/11/06 01:23:16;;;;;;;0.10;0.10;;;7.10;99.90;;;;;;5046506;28;20659;-86
2022/11/06 01:25:42;;;;;;;0.00;0.00;;;7.20;99.90;;;;;;5049287;28;20195;-86
2022/11/06 01:28:07;;;;;;;0.10;0.10;;;7.20;99.90;;;;;;5047619;28;20268;-86
2022/11/06 01:30:36;;;;;;;0.10;0.10;;;7.40;99.90;;;;;;5046182;28;20186;-86
2022/11/06 01:33:01;;;;;;;0.10;0.10;;;7.40;99.90;;;;;;5047199;28;20210;-86
2022/11/06 01:35:27;;;;;;;0.10;0.10;;;7.40;99.90;;;;;;5046802;28;20205;-86
2022/11/06 01:37:52;;;;;;;0.10;0.10;;;7.40;99.90;;;;;;5047326;28;20214;-87
2022/11/06 01:40:18;;;;;;;0.10;0.10;;;7.40;99.90;;;;;;5046022;28;20189;-85
2022/11/06 01:42:43;;;;;;;0.10;0.10;;;7.40;99.90;;;;;;5063472;28;20206;-86
2022/11/06 01:45:18;;;;;;;0.10;0.10;;;7.30;99.90;;;;;;5062213;28;20173;-86
2022/11/06 01:47:43;;;;;;;0.10;0.10;;;7.40;99.90;;;;;;5055109;28;20249;-86
2022/11/06 01:50:11;;;;;;;0.10;0.10;;;7.10;99.90;;;;;;5048270;28;20266;-86
2022/11/06 01:52:37;;;;;;;0.10;0.10;;;7.20;99.90;;;;;;5047069;28;20188;-86
2022/11/06 01:55:14;;;;;;;0.03;0.03;;;7.30;99.90;;;;;;5047328;28;20205;-86
2022/11/06 01:57:41;;;;;;;0.10;0.10;;;7.30;99.90;;;;;;5047778;28;20705;-87
2022/11/06 02:00:07;;;;;;;0.10;0.10;;;7.30;99.90;;;;;;5046661;28;20190;-86
2022/11/06 02:02:33;;;;;;;0.07;0.07;;;7.40;99.90;;;;;;5046813;28;20174;-86
2022/11/06 02:04:59;;;;;;;0.10;0.10;;;7.40;99.90;;;;;;5046759;28;20300;-86
2022/11/06 02:07:25;;;;;;;0.10;0.10;;;7.50;99.90;;;;;;5046637;28;20321;-85
2022/11/06 02:09:51;;;;;;;0.00;0.00;;;7.40;99.90;;;;;;5063322;28;20216;-86
2022/11/06 02:12:32;;;;;;;0.00;0.00;;;7.20;99.90;;;;;;5064186;28;20213;-86
2022/11/06 02:15:26;;;;;;;0.07;0.07;;;7.30;99.90;;;;;;5046888;28;20893;-87
2022/11/06 02:18:18;;;;;;;0.10;0.10;;;7.40;99.90;;;;;;5047206;28;20203;-86
2022/11/06 02:21:10;;;;;;;0.10;0.10;;;7.50;99.90;;;;;;5023658;28;20239;-86
2022/11/06 02:23:43;;;;;;;0.00;0.00;;;7.60;99.90;;;;;;5047765;28;20265;-86
2022/11/06 02:26:36;;;;;;;0.10;0.10;;;7.40;99.90;;;;;;5046569;28;20608;-86
2022/11/06 02:29:44;;;;;;;0.00;0.00;;;7.50;99.90;;;;;;5058010;28;20227;-87
2022/11/06 02:32:16;;;;;;;0.10;0.10;;;7.50;99.90;;;;;;5046073;28;20193;-86
2022/11/06 02:34:43;;;;;;;0.10;0.10;;;7.30;99.90;;;;;;5045954;28;20240;-86
2022/11/06 02:37:15;;;;;;;0.10;0.10;;;7.30;99.90;;;;;;5045321;28;20182;-86
2022/11/06 02:39:44;;;;;;;0.10;0.10;;;7.20;99.90;;;;;;5055682;28;20196;-86
2022/11/06 02:42:13;;;;;;;0.10;0.10;;;7.00;99.90;;;;;;5046411;28;20181;-86
2022/11/06 02:44:42;;;;;;;0.07;0.07;;;7.10;99.90;;;;;;5062450;28;20186;-86
2022/11/06 02:47:11;;;;;;;0.10;0.10;;;7.10;99.90;;;;;;5045831;28;20186;-86
2022/11/06 02:49:46;;;;;;;0.10;0.10;;;7.00;99.90;;;;;;5046221;28;20217;-86
2022/11/06 02:52:19;;;;;;;0.10;0.10;;;7.00;99.90;;;;;;5046399;28;20246;-86
2022/11/06 02:55:27;;;;;;;0.10;0.10;;;7.10;99.90;;;;;;5053504;28;20662;-86
2022/11/06 02:57:57;;;;;;;0.10;0.10;;;6.90;99.90;;;;;;4948761;28;20214;-85
2022/11/06 03:00:24;;;;;;;0.10;0.10;;;7.00;99.90;;;;;;4948132;28;20184;-86
2022/11/06 03:02:59;;;;;;;0.10;0.10;;;7.20;99.90;;;;;;4997620;28;20646;-87
2022/11/06 03:06:03;;;;;;;0.10;0.10;;;7.30;99.90;;;;;;5044375;28;20260;-86
2022/11/06 03:08:41;;;;;;;0.10;0.10;;;7.30;99.90;;;;;;5035564;28;20235;-86
2022/11/06 03:11:21;;;;;;;0.10;0.10;;;7.30;99.90;;;;;;5044418;28;20342;-86
2022/11/06 03:14:35;;;;;;;0.10;0.10;;;7.30;99.90;;;;;;5054148;28;20220;-87
2022/11/06 03:17:10;;;;;;;0.00;0.00;;;7.50;99.90;;;;;;5037693;28;20269;-87
2022/11/06 03:20:05;;;;;;;0.10;0.10;;;7.40;99.90;;;;;;5043779;28;20300;-87
2022/11/06 03:22:39;;;;;;;0.10;0.10;;;7.10;99.90;;;;;;5045034;28;20546;-87
2022/11/06 03:25:17;;;;;;;0.10;0.10;;;7.00;99.90;;;;;;5044509;28;20180;-87
2022/11/06 03:28:07;;;;;;;0.10;0.10;;;7.20;99.90;;;;;;5044653;28;20292;-87
2022/11/06 03:30:38;;;;;;;0.10;0.10;;;7.20;99.90;;;;;;5060194;28;20662;-87
2022/11/06 03:33:14;;;;;;;0.10;0.10;;;7.20;99.90;;;;;;5044949;28;20182;-87
2022/11/06 03:35:44;;;;;;;0.10;0.10;;;7.10;99.90;;;;;;5053692;28;20170;-87
2022/11/06 03:38:13;;;;;;;0.10;0.10;;;6.80;99.90;;;;;;5060272;28;20202;-87
2022/11/06 03:40:50;;;;;;;0.10;0.10;;;6.90;99.90;;;;;;5044030;28;20194;-87
2022/11/06 03:43:20;;;;;;;0.10;0.10;;;6.80;99.90;;;;;;5043588;28;20189;-86
2022/11/06 03:45:48;;;;;;;0.10;0.10;;;6.80;99.90;;;;;;5043831;28;20178;-86
2022/11/06 03:48:33;;;;;;;0.10;0.10;;;6.60;99.90;;;;;;5043902;28;20251;-87
2022/11/06 03:51:16;;;;;;;0.00;0.00;;;6.40;99.90;;;;;;5044206;28;20178;-87
2022/11/06 03:53:50;;;;;;;0.10;0.10;;;6.30;99.90;;;;;;5060674;28;20256;-86
2022/11/06 03:56:22;;;;;;;0.10;0.10;;;6.30;99.90;;;;;;5060592;28;20188;-87
2022/11/06 03:58:49;;;;;;;0.10;0.10;;;6.50;99.90;;;;;;5060534;28;20288;-87
2022/11/06 04:01:18;;;;;;;0.03;0.03;;;6.50;99.90;;;;;;5060799;28;20268;-87
2022/11/06 04:03:52;;;;;;;0.10;0.10;;;6.60;99.90;;;;;;5046298;28;20190;-87
2022/11/06 04:06:39;;;;;;;0.10;0.10;;;6.50;99.90;;;;;;5044296;28;20214;-87
2022/11/06 04:14:46;;;;;;;0.10;0.10;;;6.20;99.90;;;;;;5033660;28;20894;-85
2022/11/06 04:17:13;;;;;;;0.10;0.10;;;6.40;99.90;;;;;;5048304;28;20205;-87
2022/11/06 04:19:48;;;;;;;0.10;0.10;;;6.40;99.90;;;;;;5063818;28;20236;-87
2022/11/06 04:22:32;;;;;;;0.10;0.10;;;6.60;99.90;;;;;;5064151;28;20192;-86
2022/11/06 04:28:43;;;;;;;0.10;0.10;;;6.50;99.90;;;;;;5049518;28;20277;-87
2022/11/06 04:31:19;;;;;;;0.10;0.10;;;6.50;99.90;;;;;;5041319;28;20184;-87
2022/11/06 04:33:51;;;;;;;0.10;0.10;;;6.40;99.90;;;;;;5048854;28;20201;-87
2022/11/06 04:36:40;;;;;;;0.10;0.10;;;6.60;99.90;;;;;;5065023;28;20207;-87
2022/11/06 04:39:18;;;;;;;0.10;0.10;;;6.70;99.90;;;;;;5040319;28;20673;-88
2022/11/06 04:41:58;;;;;;;0.10;0.10;;;6.80;99.90;;;;;;5041598;28;20169;-87
2022/11/06 04:44:36;;;;;;;0.10;0.10;;;6.60;99.90;;;;;;5047853;28;20180;-87
2022/11/06 04:47:05;;;;;;;0.10;0.10;;;6.40;99.90;;;;;;5064520;28;20646;-86
2022/11/06 04:49:33;;;;;;;0.10;0.10;;;6.20;99.90;;;;;;5047638;28;20228;-87
2022/11/06 04:52:06;;;;;;;0.10;0.10;;;6.20;99.90;;;;;;5047925;28;20637;-87
2022/11/06 04:54:33;;;;;;;0.00;0.00;;;6.20;99.90;;;;;;5047721;28;20293;-87
2022/11/06 04:56:59;;;;;;;0.10;0.10;;;6.20;99.90;;;;;;5057541;28;20684;-87
2022/11/06 04:59:25;;;;;;;0.10;0.10;;;6.20;99.90;;;;;;5046931;28;20602;-87
2022/11/06 05:01:51;;;;;;;0.07;0.07;;;6.20;99.90;;;;;;5048089;28;20188;-86
2022/11/06 05:04:16;;;;;;;0.10;0.10;;;6.20;99.90;;;;;;5047487;28;20263;-87
2022/11/06 05:06:42;;;;;;;0.10;0.10;;;6.20;99.90;;;;;;5049014;28;20185;-87
2022/11/06 05:09:17;;;;;;;0.10;0.10;;;6.10;99.90;;;;;;5046589;28;20252;-87
2022/11/06 05:11:43;;;;;;;0.00;0.00;;;6.00;99.90;;;;;;5048548;28;20222;-88
2022/11/06 05:14:08;;;;;;;0.00;0.00;;;6.00;99.90;;;;;;5046617;28;20230;-86
2022/11/06 05:16:34;;;;;;;0.10;0.10;;;5.90;99.90;;;;;;5047806;28;20246;-88
2022/11/06 05:19:00;;;;;;;0.00;0.00;;;5.80;99.90;;;;;;5046729;28;20740;-87
2022/11/06 05:24:09;;;;;;;0.10;0.10;;;5.80;99.90;;;;;;5047818;28;20251;-87
2022/11/06 05:26:35;;;;;;;0.10;0.10;;;5.80;99.90;;;;;;5064020;28;20650;-86
2022/11/06 05:29:01;;;;;;;0.00;0.00;;;5.90;99.90;;;;;;5047945;28;21046;-87
2022/11/06 05:31:26;;;;;;;0.10;0.10;;;6.00;99.90;;;;;;5047418;28;20196;-87
2022/11/06 05:33:52;;;;;;;0.10;0.10;;;5.90;99.90;;;;;;5048675;28;20712;-87
2022/11/06 05:36:18;;;;;;;0.10;0.10;;;5.90;99.90;;;;;;5047202;28;20174;-87
2022/11/06 05:38:43;;;;;;;0.00;0.00;;;5.70;99.90;;;;;;5046556;28;20205;-87
2022/11/06 05:41:09;;;;;;;0.00;0.00;;;5.80;99.90;;;;;;5057233;28;20204;-86
2022/11/06 05:43:35;;;;;;;0.03;0.03;;;5.90;99.90;;;;;;5045312;28;20188;-86
2022/11/06 05:46:00;;;;;;;0.00;0.00;;;5.90;99.90;;;;;;5045663;28;20249;-86
2022/11/06 05:48:27;;;;;;;0.10;0.10;;;5.80;99.90;;;;;;5046246;28;20255;-87
2022/11/06 05:50:53;;;;;;;0.10;0.10;;;6.00;99.90;;;;;;5046570;28;20563;-86
2022/11/06 05:53:18;;;;;;;0.10;0.10;;;5.90;99.90;;;;;;5046107;28;20220;-86
2022/11/06 05:55:47;;;;;;;0.10;0.10;;;5.80;99.90;;;;;;5045028;28;20183;-86
2022/11/06 05:58:13;;;;;;;0.10;0.10;;;5.70;99.90;;;;;;5045588;28;20618;-85
2022/11/06 06:00:39;;;;;;;0.10;0.10;;;5.50;99.90;;;;;;5062234;28;20190;-86
2022/11/06 06:03:04;;;;;;;0.00;0.00;;;5.30;99.90;;;;;;5047203;28;20232;-86
2022/11/06 06:05:30;;;;;;;0.10;0.10;;;5.10;99.90;;;;;;5062703;28;20190;-85
2022/11/06 06:07:55;;;;;;;0.10;0.10;;;5.00;99.90;;;;;;5045792;28;20197;-85
2022/11/06 06:10:21;;;;;;;0.10;0.10;;;4.90;99.90;;;;;;5046776;28;20280;-86
2022/11/06 06:12:49;;;;;;;0.00;0.00;;;5.00;99.90;;;;;;5061423;28;20649;-85
2022/11/06 06:15:14;;;;;;;0.10;0.10;;;5.10;99.90;;;;;;5045343;28;20216;-86
2022/11/06 06:17:40;;;;;;;0.10;0.10;;;5.20;99.90;;;;;;5041835;28;20198;-87
2022/11/06 06:20:06;;;;;;;0.00;0.00;;;5.10;99.90;;;;;;5046951;28;20186;-86
2022/11/06 06:22:32;;;;;;;0.03;0.03;;;5.20;99.90;;;;;;5043531;28;20208;-83
2022/11/06 06:24:57;;;;;;;0.00;0.00;;;5.20;99.90;;;;;;5042049;28;20183;-85
2022/11/06 06:27:26;;;;;;;0.00;0.00;;;5.20;99.90;;;;;;5043873;28;20181;-85
2022/11/06 06:29:52;;;;;;;0.10;0.10;;;5.00;99.90;;;;;;5059317;28;20527;-83
2022/11/06 06:32:17;;;;;;;0.10;0.10;;;4.90;99.90;;;;;;5061422;28;20194;-83
2022/11/06 06:34:43;;;;;;;0.10;0.10;;;4.80;99.90;;;;;;5041602;28;20198;-84
2022/11/06 06:37:08;;;;;;;0.10;0.10;;;4.60;99.90;;;;;;5042815;28;20186;-84
2022/11/06 06:39:34;;;;;;;0.10;0.10;;;4.60;99.90;;;;;;5041182;28;20221;-83
2022/11/06 06:41:59;;;;;;;0.10;0.10;;;4.70;99.90;;;;;;5046809;28;20571;-83
2022/11/06 06:44:25;;;;;;;0.10;0.10;;;4.70;99.90;;;;;;5046504;28;20190;-84
2022/11/06 06:46:50;;;;;;;0.00;0.00;;;4.90;99.90;;;;;;5046588;28;20208;-83
2022/11/06 06:49:16;;;;;;;0.00;0.00;;;5.00;99.90;;;;;;5045473;28;20211;-84
2022/11/06 06:51:43;;;;;;;0.00;0.00;;;5.10;99.90;;;;;;5044607;28;20205;-85
2022/11/06 06:54:09;;;;;;;0.10;0.10;;;5.10;99.90;;;;;;5059726;28;20206;-86
2022/11/06 06:56:34;;;;;;;0.10;0.10;;;5.10;99.90;;;;;;5042823;28;20184;-86
2022/11/06 06:59:02;;;;;;;0.00;0.00;;;5.00;99.90;;;;;;5045947;28;20200;-85
2022/11/06 07:01:29;;;;;;;0.00;0.00;;;5.20;99.90;;;;;;5045477;28;20883;-86
2022/11/06 07:03:55;;;;;;;0.03;0.03;;;5.00;99.90;;;;;;5044052;28;20174;-86
2022/11/06 07:06:27;;;;;;;0.10;0.10;;;4.80;99.90;;;;;;5042650;28;20858;-85
2022/11/06 07:08:56;;;;;;;0.10;0.10;;;4.70;99.90;;;;;;5057303;28;20205;-85
2022/11/06 07:11:22;;;;;;;0.10;0.10;;;4.70;99.90;;;;;;5042809;28;20204;-85
2022/11/06 07:13:48;;;;;;;0.10;0.10;;;4.60;99.90;;;;;;5043981;28;20284;-85
2022/11/06 07:16:13;;;;;;;0.00;0.00;;;4.60;99.90;;;;;;5043556;28;20221;-86
2022/11/06 07:18:40;;;;;;;0.10;0.10;;;4.70;99.90;;;;;;5042671;28;20244;-85
2022/11/06 07:21:07;;;;;;;0.00;0.00;;;4.90;99.90;;;;;;5034802;28;20873;-87
2022/11/06 07:23:34;;;;;;;0.00;0.00;;;5.00;99.90;;;;;;5041143;28;20232;-86
2022/11/06 07:26:00;;;;;;;0.10;0.10;;;5.30;99.90;;;;;;5042168;28;20236;-85
2022/11/06 07:28:25;;;;;;;0.00;0.00;;;5.40;99.90;;;;;;5041853;28;20279;-86
2022/11/06 07:30:51;;;;;;;0.10;0.10;;;5.40;99.90;;;;;;5042056;28;20190;-85
2022/11/06 07:33:17;;;;;;;0.10;0.10;;;5.70;99.90;;;;;;5042179;28;20927;-84
2022/11/06 07:35:43;;;;;;;0.10;0.10;;;5.60;99.90;;;;;;5041564;28;20215;-86
2022/11/06 07:38:08;;;;;;;0.00;0.00;;;5.90;99.90;;;;;;5040926;28;20325;-86
2022/11/06 07:40:35;;;;;;;0.10;0.10;;;6.00;99.90;;;;;;5006826;28;1061577;-86
2022/11/06 07:43:05;;;;;;;0.00;0.00;;;6.20;99.90;;;;;;5043361;28;20220;-85
2022/11/06 07:45:34;;;;;;;0.03;0.03;;;6.40;99.90;;;;;;5043671;28;20227;-84
2022/11/06 07:47:59;;;;;;;0.00;0.00;;;6.30;99.90;;;;;;5041562;28;20205;-86
2022/11/06 07:50:25;;;;;;;0.00;0.00;;;6.40;99.90;;;;;;5038146;28;20226;-86
2022/11/06 07:52:51;;;;;;;0.00;0.00;;;6.50;99.90;;;;;;5036792;28;20647;-86
2022/11/06 07:55:17;;;;;;;0.10;0.10;;;6.60;99.90;;;;;;5041171;28;20207;-86
2022/11/06 07:57:43;;;;;;;0.10;0.10;;;6.40;99.90;;;;;;5041744;28;20202;-85
2022/11/06 08:00:09;;;;;;;0.10;0.10;;;6.60;99.90;;;;;;5042625;28;20189;-85
2022/11/06 08:02:34;;;;;;;0.10;0.10;;;6.50;99.90;;;;;;5043557;28;20192;-86
2022/11/06 08:05:00;;;;;;;0.10;0.10;;;6.40;99.90;;;;;;5042574;28;21198;-86
2022/11/06 08:07:25;;;;;;;0.10;0.10;;;6.70;99.90;;;;;;5042851;28;20197;-83
2022/11/06 08:09:51;;;;;;;0.10;0.10;;;6.80;99.90;;;;;;5039670;28;20658;-85
2022/11/06 08:12:16;;;;;;;0.10;0.10;;;6.80;99.90;;;;;;5040871;28;20198;-84
2022/11/06 08:14:42;;;;;;;0.10;0.10;;;6.90;99.90;;;;;;5042324;28;20213;-84
2022/11/06 08:17:08;;;;;;;0.07;0.07;;;6.60;99.90;;;;;;5057687;28;20201;-83
2022/11/06 08:19:33;;;;;;;0.00;0.00;;;6.30;99.90;;;;;;5040630;28;20202;-84
2022/11/06 08:21:59;;;;;;;0.00;0.00;;;6.10;99.90;;;;;;5040382;28;20189;-83
2022/11/06 08:24:24;;;;;;;0.10;0.10;;;6.50;99.90;;;;;;5040418;28;20186;-84
2022/11/06 08:26:50;;;;;;;0.00;0.00;;;6.80;99.90;;;;;;5042112;28;20178;-84
2022/11/06 08:29:16;;;;;;;0.10;0.10;;;7.00;99.90;;;;;;5042326;28;20198;-84
2022/11/06 08:31:41;;;;;;;0.10;0.10;;;6.90;99.90;;;;;;5059188;28;20250;-83
2022/11/06 08:34:08;;;;;;;0.00;0.00;;;6.60;99.90;;;;;;5058621;28;21025;-84
2022/11/06 08:36:44;;;;;;;0.07;0.07;;;6.50;99.90;;;;;;5042193;28;20325;-84
2022/11/06 08:39:10;;;;;;;0.10;0.10;;;6.70;99.90;;;;;;5050421;28;20217;-84
2022/11/06 08:41:40;;;;;;;0.10;0.10;;;6.70;99.90;;;;;;5059064;28;20211;-84
2022/11/06 08:44:06;;;;;;;0.10;0.10;;;6.90;99.90;;;;;;5050884;28;20555;-83
2022/11/06 08:46:33;;;;;;;0.10;0.10;;;7.10;99.90;;;;;;5037096;28;20194;-86
2022/11/06 08:48:58;;;;;;;0.00;0.00;;;7.40;99.90;;;;;;5032586;28;20210;-85
2022/11/06 08:51:24;;;;;;;0.10;0.10;;;7.20;99.90;;;;;;5033200;28;20194;-85
2022/11/06 08:53:49;;;;;;;0.10;0.10;;;7.40;99.90;;;;;;5057078;28;20201;-83
2022/11/06 08:56:15;;;;;;;0.10;0.10;;;7.40;99.90;;;;;;5052878;28;20180;-82
2022/11/06 08:58:41;;;;;;;0.00;0.00;;;7.70;99.90;;;;;;5045417;28;20205;-83
2022/11/06 09:01:07;;;;;;;0.00;0.00;;;8.00;99.90;;;;;;5044336;28;20185;-82
2022/11/06 09:03:32;;;;;;;0.03;0.03;;;8.10;99.90;;;;;;5044295;28;20269;-82
2022/11/06 09:05:58;;;;;;;0.10;0.10;;;8.40;99.90;;;;;;5044868;28;20202;-83
2022/11/06 09:08:23;;;;;;;0.03;0.03;;;8.20;99.90;;;;;;5043646;28;21131;-82
2022/11/06 09:10:49;;;;;;;0.10;0.10;;;8.20;99.90;;;;;;5045019;28;20689;-83
2022/11/06 09:13:15;;;;;;;0.00;0.00;;;8.30;99.90;;;;;;5045404;28;20193;-82
2022/11/06 09:15:41;;;;;;;0.00;0.00;;;8.40;99.90;;;;;;5042590;28;20239;-83
2022/11/06 09:18:07;;;;;;;0.00;0.00;;;8.50;99.90;;;;;;5045269;28;20743;-82
2022/11/06 09:20:32;;;;;;;0.10;0.10;;;8.60;99.90;;;;;;5045208;28;20319;-83
2022/11/06 09:23:04;;;;;;;0.00;0.00;;;8.60;99.90;;;;;;5045055;28;20184;-84
2022/11/06 09:25:30;;;;;;;0.10;0.10;;;8.60;99.90;;;;;;5043783;28;20274;-85
2022/11/06 09:27:55;;;;;;;0.10;0.10;;;8.80;99.90;;;;;;5044734;28;20667;-85
2022/11/06 09:30:24;;;;;;;0.10;0.10;;;8.60;99.90;;;;;;5044013;28;20235;-84
2022/11/06 09:32:52;;;;;;;0.10;0.10;;;8.80;99.90;;;;;;5045292;28;20179;-85
2022/11/06 09:35:20;;;;;;;0.00;0.00;;;8.70;99.90;;;;;;5043069;28;20217;-86
2022/11/06 09:37:45;;;;;;;0.10;0.10;;;8.50;99.90;;;;;;5041928;28;20219;-84
2022/11/06 09:40:41;;;;;;;0.10;0.10;;;8.40;99.90;;;;;;5043544;28;20278;-86
2022/11/06 09:43:22;;;;;;;0.10;0.10;;;7.80;99.90;;;;;;5044008;28;21113;-84
2022/11/06 09:45:50;;;;;;;0.07;0.07;;;8.10;99.90;;;;;;5043453;28;20541;-83
2022/11/06 09:48:31;;;;;;;0.10;0.10;;;8.30;99.90;;;;;;5043024;28;20198;-86
2022/11/06 09:51:29;;;;;;;0.10;0.10;;;8.30;99.90;;;;;;5043659;28;20531;-85
2022/11/06 09:54:18;;;;;;;0.10;0.10;;;8.20;99.90;;;;;;5044616;28;20200;-85
2022/11/06 09:56:47;;;;;;;0.10;0.10;;;7.70;99.90;;;;;;5044872;28;20262;-85
2022/11/06 09:59:19;;;;;;;0.10;0.10;;;7.60;99.90;;;;;;5045122;28;20200;-86
2022/11/06 10:01:53;;;;;;;0.10;0.10;;;8.00;99.90;;;;;;5045079;28;20201;-82
2022/11/06 10:04:27;;;;;;;0.10;0.10;;;7.90;99.90;;;;;;5044023;28;20192;-84
2022/11/06 10:06:54;;;;;;;0.10;0.10;;;8.20;99.90;;;;;;5035173;28;20188;-84
2022/11/06 10:09:20;;;;;;;0.10;0.10;;;7.80;99.90;;;;;;5041820;28;20644;-85
2022/11/06 10:11:59;;;;;;;0.00;0.00;;;7.90;99.90;;;;;;5043178;28;20197;-84
2022/11/06 10:14:43;;;;;;;0.03;0.03;;;8.10;99.90;;;;;;5043008;28;20306;-84
2022/11/06 10:17:11;;;;;;;0.80;0.80;;;8.30;99.90;;;;;;5044635;28;20187;-85
2022/11/06 10:19:47;;;;;;;0.10;0.10;;;8.10;99.90;;;;;;5043993;28;20215;-85
2022/11/06 10:22:21;;;;;;;0.10;0.10;;;8.70;99.90;;;;;;5040705;28;20180;-85
2022/11/06 10:24:47;;;;;;;0.10;0.10;;;8.60;99.90;;;;;;5058958;28;20208;-85
2022/11/06 10:27:18;;;;;;;0.10;0.10;;;8.80;99.90;;;;;;5043057;28;21174;-84
2022/11/06 10:30:02;;;;;;;0.10;0.10;;;9.30;99.90;;;;;;5051629;28;20738;-84
2022/11/06 10:32:47;;;;;;;0.10;0.10;;;9.10;99.90;;;;;;5041155;28;20576;-84
2022/11/06 10:35:25;;;;;;;0.10;0.10;;;9.50;99.90;;;;;;5033335;28;20220;-85
2022/11/06 10:38:03;;;;;;;0.10;0.10;;;9.70;99.90;;;;;;5040462;28;20195;-85
2022/11/06 10:40:31;;;;;;;0.10;0.10;;;9.90;99.90;;;;;;5042031;28;20230;-86
2022/11/06 10:43:05;;;;;;;0.10;0.10;;;9.90;99.90;;;;;;5043311;28;20190;-85
2022/11/06 10:45:33;;;;;;;0.10;0.10;;;10.30;99.90;;;;;;5041959;28;20742;-85
2022/11/06 10:48:10;;;;;;;0.10;0.10;;;10.60;99.90;;;;;;5043250;28;20218;-83
2022/11/06 10:50:52;;;;;;;0.10;0.10;;;11.00;99.90;;;;;;5043078;28;20284;-87
2022/11/06 10:53:38;;;;;;;0.10;0.10;;;11.20;99.90;;;;;;5041789;28;20188;-87
2022/11/06 10:56:44;;;;;;;0.10;0.10;;;11.10;99.90;;;;;;5043734;28;20228;-87
2022/11/06 10:59:10;;;;;;;0.00;0.00;;;11.30;99.90;;;;;;5043536;28;20212;-86
2022/11/06 11:01:37;;;;;;;0.10;0.10;;;11.30;99.90;;;;;;5043491;28;20177;-86
2022/11/06 11:04:02;;;;;;;0.10;0.10;;;11.50;99.90;;;;;;5041574;28;20190;-87
2022/11/06 11:06:28;;;;;;;0.10;0.10;;;11.60;99.90;;;;;;5058392;28;20692;-87
2022/11/06 11:08:53;;;;;;;0.10;0.10;;;11.60;99.90;;;;;;5051141;28;20754;-86
2022/11/06 11:11:24;;;;;;;0.10;0.10;;;11.70;99.90;;;;;;5043341;28;20186;-87
2022/11/06 11:14:20;;;;;;;0.10;0.10;;;11.90;99.90;;;;;;5044694;28;20636;-86
2022/11/06 11:16:45;;;;;;;0.10;0.10;;;11.90;99.90;;;;;;5043494;28;20186;-86
2022/11/06 11:19:33;;;;;;;0.10;0.10;;;12.10;99.90;;;;;;5045702;28;21298;-86
2022/11/06 11:22:04;;;;;;;0.10;0.10;;;12.00;99.90;;;;;;5043514;28;20185;-87
2022/11/06 11:24:30;;;;;;;0.10;0.10;;;11.70;99.90;;;;;;5042470;28;20189;-86
2022/11/06 11:27:02;;;;;;;0.10;0.10;;;11.50;99.90;;;;;;5059952;28;20197;-87
2022/11/06 11:29:40;;;;;;;0.10;0.10;;;11.60;99.90;;;;;;5044235;28;20221;-87
2022/11/06 11:32:06;;;;;;;0.10;0.10;;;11.70;99.90;;;;;;5034308;28;20192;-85
2022/11/06 11:34:42;;;;;;;0.10;0.10;;;11.80;99.90;;;;;;5052041;28;20214;-87
2022/11/06 11:37:26;;;;;;;0.10;0.10;;;11.70;99.90;;;;;;5041913;28;20186;-87
2022/11/06 11:39:52;;;;;;;0.10;0.10;;;12.00;99.90;;;;;;5043431;28;20209;-86
2022/11/06 11:42:20;;;;;;;0.10;0.10;;;12.10;99.90;;;;;;5044178;28;20182;-87
2022/11/06 11:44:45;;;;;;;0.10;0.10;;;12.00;99.90;;;;;;5042287;28;20614;-86
2022/11/06 11:47:23;;;;;;;0.10;0.10;;;11.80;99.90;;;;;;5040781;28;20192;-87
2022/11/06 11:49:49;;;;;;;0.10;0.10;;;11.30;99.90;;;;;;5042182;28;20184;-86
2022/11/06 11:52:20;;;;;;;0.10;0.10;;;10.80;99.90;;;;;;5043622;28;20188;-86
2022/11/06 11:54:51;;;;;;;0.00;0.00;;;10.70;99.90;;;;;;5045490;28;20209;-87
2022/11/06 11:57:20;;;;;;;0.10;0.10;;;10.90;99.90;;;;;;5060773;28;20665;-87
2022/11/06 11:59:50;;;;;;;0.10;0.10;;;11.10;99.90;;;;;;5044557;28;20692;-86
2022/11/06 12:02:24;;;;;;;0.10;0.10;;;11.30;99.90;;;;;;5044344;28;20189;-87
2022/11/06 12:04:54;;;;;;;0.10;0.10;;;11.20;99.90;;;;;;5043995;28;20181;-87
2022/11/06 12:07:24;;;;;;;0.00;0.00;;;11.30;99.90;;;;;;5058889;28;20188;-86
2022/11/06 12:09:51;;;;;;;0.10;0.10;;;11.40;99.90;;;;;;5042865;28;20186;-87
2022/11/06 12:12:25;;;;;;;0.10;0.10;;;11.60;99.90;;;;;;5059929;28;20186;-87
2022/11/06 12:15:25;;;;;;;0.10;0.10;;;11.40;99.90;;;;;;5040791;28;20213;-86
2022/11/06 12:17:56;;;;;;;0.00;0.00;;;11.50;99.90;;;;;;5051441;28;20211;-84
2022/11/06 12:20:28;;;;;;;0.10;0.10;;;11.50;99.90;;;;;;5049061;28;20269;-84
2022/11/06 12:22:57;;;;;;;0.10;0.10;;;11.70;99.90;;;;;;5044290;28;20209;-83
2022/11/06 12:25:33;;;;;;;0.10;0.10;;;11.90;99.90;;;;;;5044488;28;20610;-83
2022/11/06 12:28:01;;;;;;;0.10;0.10;;;12.10;99.90;;;;;;5048532;28;20731;-83
2022/11/06 12:30:29;;;;;;;0.10;0.10;;;12.20;99.90;;;;;;5048617;28;20681;-84
2022/11/06 12:33:20;;;;;;;0.10;0.10;;;12.30;99.90;;;;;;5065940;28;20206;-83
2022/11/06 12:36:09;;;;;;;0.10;0.10;;;12.30;99.90;;;;;;5049134;28;20181;-83
2022/11/06 12:38:43;;;;;;;0.10;0.10;;;12.00;99.90;;;;;;5046910;28;20209;-83
2022/11/06 12:41:23;;;;;;;0.10;0.10;;;12.00;99.90;;;;;;5048594;28;20194;-83
2022/11/06 12:43:50;;;;;;;0.10;0.10;;;12.10;99.90;;;;;;5044049;28;20252;-83
2022/11/06 12:46:22;;;;;;;0.10;0.10;;;12.10;99.90;;;;;;5051758;28;20178;-84
2022/11/06 12:49:01;;;;;;;0.10;0.10;;;12.10;99.90;;;;;;5051829;28;20212;-83
2022/11/06 12:52:05;;;;;;;0.10;0.10;;;12.00;99.90;;;;;;5050961;28;20747;-83
2022/11/06 12:54:57;;;;;;;0.10;0.10;;;12.10;99.90;;;;;;5050877;28;20197;-83
2022/11/06 12:57:42;;;;;;;0.00;0.00;;;12.10;99.90;;;;;;5060156;28;20261;-84
2022/11/06 13:00:20;;;;;;;0.10;0.10;;;12.20;99.90;;;;;;5048078;28;20196;-84
2022/11/06 13:03:05;;;;;;;0.00;0.00;;;12.10;99.90;;;;;;5051010;28;20195;-84
2022/11/06 13:05:54;;;;;;;0.00;0.00;;;12.10;99.90;;;;;;5050202;28;20186;-83
2022/11/06 13:09:01;;;;;;;0.10;0.10;;;12.00;99.90;;;;;;5050228;28;20209;-83
2022/11/06 13:11:39;;;;;;;0.00;0.00;;;11.90;99.90;;;;;;5050760;28;20215;-81
2022/11/06 13:14:21;;;;;;;0.10;0.10;;;12.10;99.90;;;;;;5056743;28;20228;-90
2022/11/06 13:17:03;;;;;;;0.10;0.10;;;12.20;99.90;;;;;;5046210;28;20174;-84
2022/11/06 13:19:48;;;;;;;0.10;0.10;;;12.30;99.90;;;;;;5048832;28;20286;-83
2022/11/06 13:22:29;;;;;;;0.10;0.10;;;12.30;99.90;;;;;;5056525;28;20182;-84
2022/11/06 13:25:19;;;;;;;0.10;0.10;;;12.50;99.90;;;;;;5048234;28;20186;-83
2022/11/06 13:28:14;;;;;;;0.10;0.10;;;12.60;99.90;;;;;;5045689;28;20243;-83
2022/11/06 13:30:42;;;;;;;0.10;0.10;;;12.50;99.90;;;;;;5022091;28;21027;-83